sensor_id;sensor_type;location;lat;lon;timestamp;temperature;humidity
12845;DHT22;68700;48.534;9.196;2023-04-25T00:02:14;7.80;1.00
12845;DHT22;68700;48.534;9.196;2023-04-25T00:05:36;7.70;1.00
12845;DHT22;68700;48.534;9.196;2023-04-25T00:08:59;7.70;1.00
12845;DHT22;68700;48.534;9.196;2023-04-25T00:12:22;7.70;1.00
12845;DHT22;68700;48.534;9.196;2023-04-25T00:15:44;7.60;1.00
12845;DHT22;68700;48.534;9.196;2023-04-25T00:19:08;7.60;1.00
12845;DHT22;68700;48.534;9.196;2023-04-25T00:22:30;7.60;1.00
12845;DHT22;68700;48.534;9.196;2023-04-25T00:25:52;7.60;1.00
12845;DHT22;68700;48.534;9.196;2023-04-25T00:29:15;7.70;1.00
12845;DHT22;68700;48.534;9.196;2023-04-25T00:32:37;7.80;1.00
12845;DHT22;68700;48.534;9.196;2023-04-25T00:35:59;7.80;1.00
12845;DHT22;68700;48.534;9.196;2023-04-25T00:39:21;7.90;1.00
12845;DHT22;68700;48.534;9.196;2023-04-25T00:42:43;7.90;1.00
12845;DHT22;68700;48.534;9.196;2023-04-25T00:46:07;7.90;1.00
12845;DHT22;68700;48.534;9.196;2023-04-25T00:49:29;7.90;1.00
12845;DHT22;68700;48.534;9.196;2023-04-25T00:52:51;8.00;1.00
12845;DHT22;68700;48.534;9.196;2023-04-25T00:56:13;8.00;1.00
12845;DHT22;68700;48.534;9.196;2023-04-25T00:59:36;8.00;1.00
12845;DHT22;68700;48.534;9.196;2023-04-25T01:03:00;8.00;1.00
12845;DHT22;68700;48.534;9.196;2023-04-25T01:06:23;8.10;1.00
12845;DHT22;68700;48.534;9.196;2023-04-25T01:09:46;8.10;1.00
12845;DHT22;68700;48.534;9.196;2023-04-25T01:13:08;8.10;1.00
12845;DHT22;68700;48.534;9.196;2023-04-25T01:16:30;8.00;1.00
12845;DHT22;68700;48.534;9.196;2023-04-25T01:19:54;8.00;1.00
12845;DHT22;68700;48.534;9.196;2023-04-25T01:23:18;8.00;1.00
12845;DHT22;68700;48.534;9.196;2023-04-25T01:26:41;8.00;1.00
12845;DHT22;68700;48.534;9.196;2023-04-25T01:30:06;7.90;1.00
12845;DHT22;68700;48.534;9.196;2023-04-25T01:33:28;8.00;1.00
12845;DHT22;68700;48.534;9.196;2023-04-25T01:36:51;8.00;1.00
12845;DHT22;68700;48.534;9.196;2023-04-25T01:40:14;8.00;1.00
12845;DHT22;68700;48.534;9.196;2023-04-25T01:43:36;8.00;1.00
12845;DHT22;68700;48.534;9.196;2023-04-25T01:46:58;7.90;1.00
12845;DHT22;68700;48.534;9.196;2023-04-25T01:50:20;7.80;1.00
12845;DHT22;68700;48.534;9.196;2023-04-25T01:53:42;7.80;1.00
12845;DHT22;68700;48.534;9.196;2023-04-25T01:57:06;7.80;1.00
12845;DHT22;68700;48.534;9.196;2023-04-25T02:00:28;7.70;1.00
12845;DHT22;68700;48.534;9.196;2023-04-25T02:03:50;7.70;1.00
12845;DHT22;68700;48.534;9.196;2023-04-25T02:07:11;7.70;1.00
12845;DHT22;68700;48.534;9.196;2023-04-25T02:10:34;7.80;1.00
12845;DHT22;68700;48.534;9.196;2023-04-25T02:13:57;7.80;1.00
12845;DHT22;68700;48.534;9.196;2023-04-25T02:17:19;7.80;1.00
12845;DHT22;68700;48.534;9.196;2023-04-25T02:20:42;7.90;1.00
12845;DHT22;68700;48.534;9.196;2023-04-25T02:24:05;7.90;1.00
12845;DHT22;68700;48.534;9.196;2023-04-25T02:27:27;7.80;1.00
12845;DHT22;68700;48.534;9.196;2023-04-25T02:30:50;7.80;1.00
12845;DHT22;68700;48.534;9.196;2023-04-25T02:34:12;7.60;1.00
12845;DHT22;68700;48.534;9.196;2023-04-25T02:37:35;7.60;1.00
12845;DHT22;68700;48.534;9.196;2023-04-25T02:40:58;7.60;1.00
12845;DHT22;68700;48.534;9.196;2023-04-25T02:44:19;7.50;1.00
12845;DHT22;68700;48.534;9.196;2023-04-25T02:47:43;7.40;1.00
12845;DHT22;68700;48.534;9.196;2023-04-25T02:51:05;7.50;1.00
12845;DHT22;68700;48.534;9.196;2023-04-25T02:54:26;7.50;1.00
12845;DHT22;68700;48.534;9.196;2023-04-25T02:57:48;7.50;1.00
12845;DHT22;68700;48.534;9.196;2023-04-25T03:01:10;7.40;1.00
12845;DHT22;68700;48.534;9.196;2023-04-25T03:04:34;7.40;1.00
12845;DHT22;68700;48.534;9.196;2023-04-25T03:07:55;7.40;1.00
12845;DHT22;68700;48.534;9.196;2023-04-25T03:11:17;7.30;1.00
12845;DHT22;68700;48.534;9.196;2023-04-25T03:14:40;7.30;1.00
12845;DHT22;68700;48.534;9.196;2023-04-25T03:18:02;7.20;1.00
12845;DHT22;68700;48.534;9.196;2023-04-25T03:21:26;7.10;1.00
12845;DHT22;68700;48.534;9.196;2023-04-25T03:24:47;7.10;1.00
12845;DHT22;68700;48.534;9.196;2023-04-25T03:28:09;7.20;1.00
12845;DHT22;68700;48.534;9.196;2023-04-25T03:31:31;7.20;1.00
12845;DHT22;68700;48.534;9.196;2023-04-25T03:34:53;7.20;1.00
12845;DHT22;68700;48.534;9.196;2023-04-25T03:38:17;7.20;1.00
12845;DHT22;68700;48.534;9.196;2023-04-25T03:41:39;7.20;1.00
12845;DHT22;68700;48.534;9.196;2023-04-25T03:45:01;7.20;1.00
12845;DHT22;68700;48.534;9.196;2023-04-25T03:48:23;7.20;1.00
12845;DHT22;68700;48.534;9.196;2023-04-25T03:51:46;7.20;1.00
12845;DHT22;68700;48.534;9.196;2023-04-25T03:55:10;7.20;1.00
12845;DHT22;68700;48.534;9.196;2023-04-25T03:58:31;7.10;1.00
12845;DHT22;68700;48.534;9.196;2023-04-25T04:01:54;7.10;1.00
12845;DHT22;68700;48.534;9.196;2023-04-25T04:05:16;7.10;1.00
12845;DHT22;68700;48.534;9.196;2023-04-25T04:08:38;7.10;1.00
12845;DHT22;68700;48.534;9.196;2023-04-25T04:12:01;7.10;1.00
12845;DHT22;68700;48.534;9.196;2023-04-25T04:15:23;7.10;1.00
12845;DHT22;68700;48.534;9.196;2023-04-25T04:18:45;7.10;1.00
12845;DHT22;68700;48.534;9.196;2023-04-25T04:22:07;7.10;1.00
12845;DHT22;68700;48.534;9.196;2023-04-25T04:25:29;7.00;1.00
12845;DHT22;68700;48.534;9.196;2023-04-25T04:28:52;7.00;1.00
12845;DHT22;68700;48.534;9.196;2023-04-25T04:32:15;7.00;1.00
12845;DHT22;68700;48.534;9.196;2023-04-25T04:35:37;7.00;1.00
12845;DHT22;68700;48.534;9.196;2023-04-25T04:39:00;7.10;1.00
12845;DHT22;68700;48.534;9.196;2023-04-25T04:42:23;7.10;1.00
12845;DHT22;68700;48.534;9.196;2023-04-25T04:45:47;7.10;1.00
12845;DHT22;68700;48.534;9.196;2023-04-25T04:49:11;7.10;1.00
12845;DHT22;68700;48.534;9.196;2023-04-25T04:52:34;7.10;1.00
12845;DHT22;68700;48.534;9.196;2023-04-25T04:55:56;7.10;1.00
12845;DHT22;68700;48.534;9.196;2023-04-25T04:59:18;7.10;1.00
12845;DHT22;68700;48.534;9.196;2023-04-25T05:02:41;7.00;1.00
12845;DHT22;68700;48.534;9.196;2023-04-25T05:06:03;6.90;1.00
12845;DHT22;68700;48.534;9.196;2023-04-25T05:09:26;7.00;1.00
12845;DHT22;68700;48.534;9.196;2023-04-25T05:12:48;7.00;1.00
12845;DHT22;68700;48.534;9.196;2023-04-25T05:16:10;7.10;1.00
12845;DHT22;68700;48.534;9.196;2023-04-25T05:19:33;7.10;1.00
12845;DHT22;68700;48.534;9.196;2023-04-25T05:22:55;7.20;1.00
12845;DHT22;68700;48.534;9.196;2023-04-25T05:26:17;7.30;1.00
12845;DHT22;68700;48.534;9.196;2023-04-25T05:29:39;7.30;1.00
12845;DHT22;68700;48.534;9.196;2023-04-25T05:33:01;7.30;1.00
12845;DHT22;68700;48.534;9.196;2023-04-25T05:36:24;7.50;1.00
12845;DHT22;68700;48.534;9.196;2023-04-25T05:39:46;7.60;1.00
12845;DHT22;68700;48.534;9.196;2023-04-25T05:43:08;7.80;1.00
12845;DHT22;68700;48.534;9.196;2023-04-25T05:46:30;7.80;1.00
12845;DHT22;68700;48.534;9.196;2023-04-25T05:49:52;8.00;1.00
12845;DHT22;68700;48.534;9.196;2023-04-25T05:53:15;8.00;1.00
12845;DHT22;68700;48.534;9.196;2023-04-25T05:56:37;8.50;1.00
12845;DHT22;68700;48.534;9.196;2023-04-25T05:59:59;8.80;1.00
12845;DHT22;68700;48.534;9.196;2023-04-25T06:03:21;8.60;1.00
12845;DHT22;68700;48.534;9.196;2023-04-25T06:06:43;8.80;1.00
12845;DHT22;68700;48.534;9.196;2023-04-25T06:10:07;9.00;1.00
12845;DHT22;68700;48.534;9.196;2023-04-25T06:13:29;9.60;1.00
12845;DHT22;68700;48.534;9.196;2023-04-25T06:16:51;10.00;1.00
12845;DHT22;68700;48.534;9.196;2023-04-25T06:20:13;9.90;1.00
12845;DHT22;68700;48.534;9.196;2023-04-25T06:23:35;9.80;1.00
12845;DHT22;68700;48.534;9.196;2023-04-25T06:26:58;9.30;1.00
12845;DHT22;68700;48.534;9.196;2023-04-25T06:30:20;9.40;1.00
12845;DHT22;68700;48.534;9.196;2023-04-25T06:33:46;9.10;1.00
12845;DHT22;68700;48.534;9.196;2023-04-25T06:37:08;8.90;1.00
12845;DHT22;68700;48.534;9.196;2023-04-25T06:40:30;9.20;1.00
12845;DHT22;68700;48.534;9.196;2023-04-25T06:43:53;8.80;1.00
12845;DHT22;68700;48.534;9.196;2023-04-25T06:47:15;8.80;1.00
12845;DHT22;68700;48.534;9.196;2023-04-25T06:50:37;8.50;1.00
12845;DHT22;68700;48.534;9.196;2023-04-25T06:53:59;8.60;1.00
12845;DHT22;68700;48.534;9.196;2023-04-25T06:57:21;8.70;1.00
12845;DHT22;68700;48.534;9.196;2023-04-25T07:00:45;8.70;1.00
12845;DHT22;68700;48.534;9.196;2023-04-25T07:04:07;8.70;1.00
12845;DHT22;68700;48.534;9.196;2023-04-25T07:07:29;8.50;1.00
12845;DHT22;68700;48.534;9.196;2023-04-25T07:10:50;8.70;1.00
12845;DHT22;68700;48.534;9.196;2023-04-25T07:14:12;9.00;1.00
12845;DHT22;68700;48.534;9.196;2023-04-25T07:17:36;8.90;1.00
12845;DHT22;68700;48.534;9.196;2023-04-25T07:20:58;8.80;1.00
12845;DHT22;68700;48.534;9.196;2023-04-25T07:24:20;8.80;1.00
12845;DHT22;68700;48.534;9.196;2023-04-25T07:27:42;9.00;1.00
12845;DHT22;68700;48.534;9.196;2023-04-25T07:31:04;8.80;1.00
12845;DHT22;68700;48.534;9.196;2023-04-25T07:34:28;8.90;1.00
12845;DHT22;68700;48.534;9.196;2023-04-25T07:37:50;8.90;1.00
12845;DHT22;68700;48.534;9.196;2023-04-25T07:41:12;9.00;1.00
12845;DHT22;68700;48.534;9.196;2023-04-25T07:44:34;9.30;1.00
12845;DHT22;68700;48.534;9.196;2023-04-25T07:47:59;9.40;1.00
12845;DHT22;68700;48.534;9.196;2023-04-25T07:51:22;9.40;1.00
12845;DHT22;68700;48.534;9.196;2023-04-25T07:54:44;9.50;1.00
12845;DHT22;68700;48.534;9.196;2023-04-25T07:58:06;9.40;1.00
12845;DHT22;68700;48.534;9.196;2023-04-25T08:01:28;9.40;1.00
12845;DHT22;68700;48.534;9.196;2023-04-25T08:04:49;9.40;1.00
12845;DHT22;68700;48.534;9.196;2023-04-25T08:08:13;9.10;1.00
12845;DHT22;68700;48.534;9.196;2023-04-25T08:11:35;9.10;1.00
12845;DHT22;68700;48.534;9.196;2023-04-25T08:14:57;9.10;1.00
12845;DHT22;68700;48.534;9.196;2023-04-25T08:18:19;9.10;1.00
12845;DHT22;68700;48.534;9.196;2023-04-25T08:21:41;9.10;1.00
12845;DHT22;68700;48.534;9.196;2023-04-25T08:25:05;9.10;1.00
12845;DHT22;68700;48.534;9.196;2023-04-25T08:28:26;8.70;1.00
12845;DHT22;68700;48.534;9.196;2023-04-25T08:31:48;8.30;1.00
12845;DHT22;68700;48.534;9.196;2023-04-25T08:35:11;8.10;1.00
12845;DHT22;68700;48.534;9.196;2023-04-25T08:38:33;8.00;1.00
12845;DHT22;68700;48.534;9.196;2023-04-25T08:41:56;8.20;1.00
12845;DHT22;68700;48.534;9.196;2023-04-25T08:45:18;8.40;1.00
12845;DHT22;68700;48.534;9.196;2023-04-25T08:48:41;8.50;1.00
12845;DHT22;68700;48.534;9.196;2023-04-25T08:52:05;8.50;1.00
12845;DHT22;68700;48.534;9.196;2023-04-25T08:55:28;8.50;1.00
12845;DHT22;68700;48.534;9.196;2023-04-25T08:58:51;8.70;1.00
12845;DHT22;68700;48.534;9.196;2023-04-25T09:02:13;8.80;1.00
12845;DHT22;68700;48.534;9.196;2023-04-25T09:05:37;8.90;1.00
12845;DHT22;68700;48.534;9.196;2023-04-25T09:09:02;8.80;1.00
12845;DHT22;68700;48.534;9.196;2023-04-25T09:12:26;8.90;1.00
12845;DHT22;68700;48.534;9.196;2023-04-25T09:15:50;8.80;1.00
12845;DHT22;68700;48.534;9.196;2023-04-25T09:19:21;9.00;1.00
12845;DHT22;68700;48.534;9.196;2023-04-25T09:22:46;8.80;1.00
12845;DHT22;68700;48.534;9.196;2023-04-25T09:26:08;8.80;1.00
12845;DHT22;68700;48.534;9.196;2023-04-25T09:29:32;9.10;1.00
12845;DHT22;68700;48.534;9.196;2023-04-25T09:33:04;8.50;1.00
12845;DHT22;68700;48.534;9.196;2023-04-25T09:36:27;8.70;1.00
12845;DHT22;68700;48.534;9.196;2023-04-25T09:39:52;8.80;1.00
12845;DHT22;68700;48.534;9.196;2023-04-25T09:43:19;8.80;1.00
12845;DHT22;68700;48.534;9.196;2023-04-25T09:46:42;8.50;1.00
12845;DHT22;68700;48.534;9.196;2023-04-25T09:50:13;8.40;1.00
12845;DHT22;68700;48.534;9.196;2023-04-25T09:53:36;8.50;1.00
12845;DHT22;68700;48.534;9.196;2023-04-25T09:57:05;8.10;1.00
12845;DHT22;68700;48.534;9.196;2023-04-25T10:00:32;8.00;1.00
12845;DHT22;68700;48.534;9.196;2023-04-25T10:03:56;8.10;1.00
12845;DHT22;68700;48.534;9.196;2023-04-25T10:07:23;8.20;1.00
12845;DHT22;68700;48.534;9.196;2023-04-25T10:10:46;7.60;1.00
12845;DHT22;68700;48.534;9.196;2023-04-25T10:14:12;7.80;1.00
12845;DHT22;68700;48.534;9.196;2023-04-25T10:17:35;7.90;1.00
12845;DHT22;68700;48.534;9.196;2023-04-25T10:20:59;7.90;1.00
12845;DHT22;68700;48.534;9.196;2023-04-25T10:24:23;7.80;1.00
12845;DHT22;68700;48.534;9.196;2023-04-25T10:27:46;7.60;1.00
12845;DHT22;68700;48.534;9.196;2023-04-25T10:31:08;7.20;1.00
12845;DHT22;68700;48.534;9.196;2023-04-25T10:34:40;7.00;1.00
12845;DHT22;68700;48.534;9.196;2023-04-25T10:38:10;7.00;1.00
12845;DHT22;68700;48.534;9.196;2023-04-25T10:41:45;6.80;1.00
12845;DHT22;68700;48.534;9.196;2023-04-25T10:45:09;6.60;1.00
12845;DHT22;68700;48.534;9.196;2023-04-25T10:48:31;6.60;1.00
12845;DHT22;68700;48.534;9.196;2023-04-25T10:52:14;6.70;1.00
12845;DHT22;68700;48.534;9.196;2023-04-25T10:55:49;7.00;1.00
12845;DHT22;68700;48.534;9.196;2023-04-25T10:59:13;6.70;1.00
12845;DHT22;68700;48.534;9.196;2023-04-25T11:02:43;6.70;1.00
12845;DHT22;68700;48.534;9.196;2023-04-25T11:06:09;6.80;1.00
12845;DHT22;68700;48.534;9.196;2023-04-25T11:09:34;6.80;1.00
12845;DHT22;68700;48.534;9.196;2023-04-25T11:12:56;6.90;1.00
12845;DHT22;68700;48.534;9.196;2023-04-25T11:16:20;6.80;1.00
12845;DHT22;68700;48.534;9.196;2023-04-25T11:19:48;6.80;1.00
12845;DHT22;68700;48.534;9.196;2023-04-25T11:23:10;7.00;1.00
12845;DHT22;68700;48.534;9.196;2023-04-25T11:26:32;6.80;1.00
12845;DHT22;68700;48.534;9.196;2023-04-25T11:29:54;7.00;1.00
12845;DHT22;68700;48.534;9.196;2023-04-25T11:33:17;7.00;1.00
12845;DHT22;68700;48.534;9.196;2023-04-25T11:36:39;6.40;1.00
12845;DHT22;68700;48.534;9.196;2023-04-25T11:40:02;6.30;1.00
12845;DHT22;68700;48.534;9.196;2023-04-25T11:43:25;6.40;1.00
12845;DHT22;68700;48.534;9.196;2023-04-25T11:46:47;6.50;1.00
12845;DHT22;68700;48.534;9.196;2023-04-25T11:50:11;6.70;1.00
12845;DHT22;68700;48.534;9.196;2023-04-25T11:53:35;6.70;1.00
12845;DHT22;68700;48.534;9.196;2023-04-25T11:56:56;7.10;1.00
12845;DHT22;68700;48.534;9.196;2023-04-25T12:00:20;7.40;1.00
12845;DHT22;68700;48.534;9.196;2023-04-25T12:03:45;7.60;1.00
12845;DHT22;68700;48.534;9.196;2023-04-25T12:07:09;7.90;1.00
12845;DHT22;68700;48.534;9.196;2023-04-25T12:10:31;8.00;1.00
12845;DHT22;68700;48.534;9.196;2023-04-25T12:13:53;8.40;1.00
12845;DHT22;68700;48.534;9.196;2023-04-25T12:17:16;8.30;1.00
12845;DHT22;68700;48.534;9.196;2023-04-25T12:20:38;7.80;1.00
12845;DHT22;68700;48.534;9.196;2023-04-25T12:24:11;7.80;1.00
12845;DHT22;68700;48.534;9.196;2023-04-25T12:27:35;7.50;1.00
12845;DHT22;68700;48.534;9.196;2023-04-25T12:30:58;7.50;1.00
12845;DHT22;68700;48.534;9.196;2023-04-25T12:34:22;7.60;1.00
12845;DHT22;68700;48.534;9.196;2023-04-25T12:37:44;7.50;1.00
12845;DHT22;68700;48.534;9.196;2023-04-25T12:41:08;7.90;1.00
12845;DHT22;68700;48.534;9.196;2023-04-25T12:44:30;7.40;1.00
12845;DHT22;68700;48.534;9.196;2023-04-25T12:47:52;7.70;1.00
12845;DHT22;68700;48.534;9.196;2023-04-25T12:51:14;8.50;1.00
12845;DHT22;68700;48.534;9.196;2023-04-25T12:54:35;8.90;1.00
12845;DHT22;68700;48.534;9.196;2023-04-25T12:57:59;8.90;1.00
12845;DHT22;68700;48.534;9.196;2023-04-25T13:01:21;8.80;1.00
12845;DHT22;68700;48.534;9.196;2023-04-25T13:04:42;9.10;1.00
12845;DHT22;68700;48.534;9.196;2023-04-25T13:08:06;9.10;1.00
12845;DHT22;68700;48.534;9.196;2023-04-25T13:11:27;9.10;1.00
12845;DHT22;68700;48.534;9.196;2023-04-25T13:14:51;9.70;1.00
12845;DHT22;68700;48.534;9.196;2023-04-25T13:18:13;9.70;1.00
12845;DHT22;68700;48.534;9.196;2023-04-25T13:21:34;9.70;1.00
12845;DHT22;68700;48.534;9.196;2023-04-25T13:24:56;9.80;1.00
12845;DHT22;68700;48.534;9.196;2023-04-25T13:28:18;9.80;1.00
12845;DHT22;68700;48.534;9.196;2023-04-25T13:31:41;10.00;1.00
12845;DHT22;68700;48.534;9.196;2023-04-25T13:35:04;10.30;1.00
12845;DHT22;68700;48.534;9.196;2023-04-25T13:38:26;10.20;1.00
12845;DHT22;68700;48.534;9.196;2023-04-25T13:41:48;10.20;1.00
12845;DHT22;68700;48.534;9.196;2023-04-25T13:45:10;10.60;1.00
12845;DHT22;68700;48.534;9.196;2023-04-25T13:48:33;10.60;1.00
12845;DHT22;68700;48.534;9.196;2023-04-25T13:51:55;11.10;1.00
12845;DHT22;68700;48.534;9.196;2023-04-25T13:55:17;11.10;1.00
12845;DHT22;68700;48.534;9.196;2023-04-25T13:58:39;11.00;1.00
12845;DHT22;68700;48.534;9.196;2023-04-25T14:02:01;12.00;1.00
12845;DHT22;68700;48.534;9.196;2023-04-25T14:05:24;12.90;1.00
12845;DHT22;68700;48.534;9.196;2023-04-25T14:08:47;13.70;1.00
12845;DHT22;68700;48.534;9.196;2023-04-25T14:12:09;13.30;1.00
12845;DHT22;68700;48.534;9.196;2023-04-25T14:15:32;13.70;1.00
12845;DHT22;68700;48.534;9.196;2023-04-25T14:18:53;13.90;1.00
12845;DHT22;68700;48.534;9.196;2023-04-25T14:22:17;13.00;1.00
12845;DHT22;68700;48.534;9.196;2023-04-25T14:25:40;13.40;1.00
12845;DHT22;68700;48.534;9.196;2023-04-25T14:29:03;13.90;1.00
12845;DHT22;68700;48.534;9.196;2023-04-25T14:32:25;13.80;1.00
12845;DHT22;68700;48.534;9.196;2023-04-25T14:35:47;13.60;1.00
12845;DHT22;68700;48.534;9.196;2023-04-25T14:39:10;13.20;1.00
12845;DHT22;68700;48.534;9.196;2023-04-25T14:42:32;12.40;1.00
12845;DHT22;68700;48.534;9.196;2023-04-25T14:45:54;11.70;1.00
12845;DHT22;68700;48.534;9.196;2023-04-25T14:49:16;11.40;1.00
12845;DHT22;68700;48.534;9.196;2023-04-25T14:52:38;11.80;1.00
12845;DHT22;68700;48.534;9.196;2023-04-25T14:56:02;12.20;1.00
12845;DHT22;68700;48.534;9.196;2023-04-25T14:59:23;12.60;1.00
12845;DHT22;68700;48.534;9.196;2023-04-25T15:02:46;12.80;1.00
12845;DHT22;68700;48.534;9.196;2023-04-25T15:06:08;13.00;1.00
12845;DHT22;68700;48.534;9.196;2023-04-25T15:09:30;12.30;1.00
12845;DHT22;68700;48.534;9.196;2023-04-25T15:12:53;13.20;1.00
12845;DHT22;68700;48.534;9.196;2023-04-25T15:16:15;14.50;1.00
12845;DHT22;68700;48.534;9.196;2023-04-25T15:19:37;14.50;1.00
12845;DHT22;68700;48.534;9.196;2023-04-25T15:23:00;13.60;1.00
12845;DHT22;68700;48.534;9.196;2023-04-25T15:26:23;13.80;1.00
12845;DHT22;68700;48.534;9.196;2023-04-25T15:29:47;13.50;1.00
12845;DHT22;68700;48.534;9.196;2023-04-25T15:33:09;12.60;1.00
12845;DHT22;68700;48.534;9.196;2023-04-25T15:36:31;12.30;1.00
12845;DHT22;68700;48.534;9.196;2023-04-25T15:40:01;13.30;1.00
12845;DHT22;68700;48.534;9.196;2023-04-25T15:43:26;13.30;1.00
12845;DHT22;68700;48.534;9.196;2023-04-25T15:46:50;13.00;1.00
12845;DHT22;68700;48.534;9.196;2023-04-25T15:50:13;13.20;1.00
12845;DHT22;68700;48.534;9.196;2023-04-25T15:53:35;13.10;1.00
12845;DHT22;68700;48.534;9.196;2023-04-25T15:56:57;12.80;1.00
12845;DHT22;68700;48.534;9.196;2023-04-25T16:00:19;12.40;1.00
12845;DHT22;68700;48.534;9.196;2023-04-25T16:03:43;11.80;1.00
12845;DHT22;68700;48.534;9.196;2023-04-25T16:07:05;11.60;1.00
12845;DHT22;68700;48.534;9.196;2023-04-25T16:10:27;11.30;1.00
12845;DHT22;68700;48.534;9.196;2023-04-25T16:13:49;11.40;1.00
12845;DHT22;68700;48.534;9.196;2023-04-25T16:17:11;11.40;1.00
12845;DHT22;68700;48.534;9.196;2023-04-25T16:20:34;11.20;1.00
12845;DHT22;68700;48.534;9.196;2023-04-25T16:23:56;11.10;1.00
12845;DHT22;68700;48.534;9.196;2023-04-25T16:27:18;10.90;1.00
12845;DHT22;68700;48.534;9.196;2023-04-25T16:30:41;11.20;1.00
12845;DHT22;68700;48.534;9.196;2023-04-25T16:34:03;10.80;1.00
12845;DHT22;68700;48.534;9.196;2023-04-25T16:37:27;10.70;1.00
12845;DHT22;68700;48.534;9.196;2023-04-25T16:40:48;10.60;1.00
12845;DHT22;68700;48.534;9.196;2023-04-25T16:44:10;10.20;1.00
12845;DHT22;68700;48.534;9.196;2023-04-25T16:47:32;10.10;1.00
12845;DHT22;68700;48.534;9.196;2023-04-25T16:50:54;10.10;1.00
12845;DHT22;68700;48.534;9.196;2023-04-25T16:54:17;10.10;1.00
12845;DHT22;68700;48.534;9.196;2023-04-25T16:57:39;10.10;1.00
12845;DHT22;68700;48.534;9.196;2023-04-25T17:01:01;10.20;1.00
12845;DHT22;68700;48.534;9.196;2023-04-25T17:04:23;10.40;1.00
12845;DHT22;68700;48.534;9.196;2023-04-25T17:07:45;10.30;1.00
12845;DHT22;68700;48.534;9.196;2023-04-25T17:11:08;10.20;1.00
12845;DHT22;68700;48.534;9.196;2023-04-25T17:14:31;9.80;1.00
12845;DHT22;68700;48.534;9.196;2023-04-25T17:17:55;9.60;1.00
12845;DHT22;68700;48.534;9.196;2023-04-25T17:21:17;9.40;1.00
12845;DHT22;68700;48.534;9.196;2023-04-25T17:24:39;9.60;1.00
12845;DHT22;68700;48.534;9.196;2023-04-25T17:28:03;9.80;1.00
12845;DHT22;68700;48.534;9.196;2023-04-25T17:31:25;9.90;1.00
12845;DHT22;68700;48.534;9.196;2023-04-25T17:34:47;9.90;1.00
12845;DHT22;68700;48.534;9.196;2023-04-25T17:38:09;10.00;1.00
12845;DHT22;68700;48.534;9.196;2023-04-25T17:41:30;10.00;1.00
12845;DHT22;68700;48.534;9.196;2023-04-25T17:44:54;10.00;1.00
12845;DHT22;68700;48.534;9.196;2023-04-25T17:48:16;10.00;1.00
12845;DHT22;68700;48.534;9.196;2023-04-25T17:51:37;9.80;1.00
12845;DHT22;68700;48.534;9.196;2023-04-25T17:55:00;9.70;1.00
12845;DHT22;68700;48.534;9.196;2023-04-25T17:58:21;9.60;1.00
12845;DHT22;68700;48.534;9.196;2023-04-25T18:01:45;9.40;1.00
12845;DHT22;68700;48.534;9.196;2023-04-25T18:05:07;9.50;1.00
12845;DHT22;68700;48.534;9.196;2023-04-25T18:08:30;9.50;1.00
12845;DHT22;68700;48.534;9.196;2023-04-25T18:11:52;9.40;1.00
12845;DHT22;68700;48.534;9.196;2023-04-25T18:15:14;9.20;1.00
12845;DHT22;68700;48.534;9.196;2023-04-25T18:18:37;9.20;1.00
12845;DHT22;68700;48.534;9.196;2023-04-25T18:22:02;9.10;1.00
12845;DHT22;68700;48.534;9.196;2023-04-25T18:25:24;9.00;1.00
12845;DHT22;68700;48.534;9.196;2023-04-25T18:28:46;9.00;1.00
12845;DHT22;68700;48.534;9.196;2023-04-25T18:32:08;9.00;1.00
12845;DHT22;68700;48.534;9.196;2023-04-25T18:35:31;8.90;1.00
12845;DHT22;68700;48.534;9.196;2023-04-25T18:38:54;8.80;1.00
12845;DHT22;68700;48.534;9.196;2023-04-25T18:42:17;8.50;1.00
12845;DHT22;68700;48.534;9.196;2023-04-25T18:45:39;8.40;1.00
12845;DHT22;68700;48.534;9.196;2023-04-25T18:49:01;8.50;1.00
12845;DHT22;68700;48.534;9.196;2023-04-25T18:52:24;8.50;1.00
12845;DHT22;68700;48.534;9.196;2023-04-25T18:55:46;8.50;1.00
12845;DHT22;68700;48.534;9.196;2023-04-25T18:59:08;8.60;1.00
12845;DHT22;68700;48.534;9.196;2023-04-25T19:02:30;8.50;1.00
12845;DHT22;68700;48.534;9.196;2023-04-25T19:05:52;8.40;1.00
12845;DHT22;68700;48.534;9.196;2023-04-25T19:09:15;8.50;1.00
12845;DHT22;68700;48.534;9.196;2023-04-25T19:12:37;8.30;1.00
12845;DHT22;68700;48.534;9.196;2023-04-25T19:15:59;8.20;1.00
12845;DHT22;68700;48.534;9.196;2023-04-25T19:19:21;7.90;1.00
12845;DHT22;68700;48.534;9.196;2023-04-25T19:22:43;7.80;1.00
12845;DHT22;68700;48.534;9.196;2023-04-25T19:26:06;7.80;1.00
12845;DHT22;68700;48.534;9.196;2023-04-25T19:29:28;7.70;1.00
12845;DHT22;68700;48.534;9.196;2023-04-25T19:32:52;7.70;1.00
12845;DHT22;68700;48.534;9.196;2023-04-25T19:36:14;7.70;1.00
12845;DHT22;68700;48.534;9.196;2023-04-25T19:39:36;7.70;1.00
12845;DHT22;68700;48.534;9.196;2023-04-25T19:42:59;7.70;1.00
12845;DHT22;68700;48.534;9.196;2023-04-25T19:46:21;7.70;1.00
12845;DHT22;68700;48.534;9.196;2023-04-25T19:49:43;7.80;1.00
12845;DHT22;68700;48.534;9.196;2023-04-25T19:53:05;7.70;1.00
12845;DHT22;68700;48.534;9.196;2023-04-25T19:56:27;7.70;1.00
12845;DHT22;68700;48.534;9.196;2023-04-25T19:59:50;7.60;1.00
12845;DHT22;68700;48.534;9.196;2023-04-25T20:03:12;7.70;1.00
12845;DHT22;68700;48.534;9.196;2023-04-25T20:06:35;7.70;1.00
12845;DHT22;68700;48.534;9.196;2023-04-25T20:09:57;7.70;1.00
12845;DHT22;68700;48.534;9.196;2023-04-25T20:13:21;7.70;1.00
12845;DHT22;68700;48.534;9.196;2023-04-25T20:16:44;7.70;1.00
12845;DHT22;68700;48.534;9.196;2023-04-25T20:20:07;7.70;1.00
12845;DHT22;68700;48.534;9.196;2023-04-25T20:23:30;7.70;1.00
12845;DHT22;68700;48.534;9.196;2023-04-25T20:26:52;7.70;1.00
12845;DHT22;68700;48.534;9.196;2023-04-25T20:30:16;7.70;1.00
12845;DHT22;68700;48.534;9.196;2023-04-25T20:33:39;7.60;1.00
12845;DHT22;68700;48.534;9.196;2023-04-25T20:37:03;7.60;1.00
12845;DHT22;68700;48.534;9.196;2023-04-25T20:40:25;7.60;1.00
12845;DHT22;68700;48.534;9.196;2023-04-25T20:43:47;7.60;1.00
12845;DHT22;68700;48.534;9.196;2023-04-25T20:47:09;7.60;1.00
12845;DHT22;68700;48.534;9.196;2023-04-25T20:50:32;7.40;1.00
12845;DHT22;68700;48.534;9.196;2023-04-25T20:53:54;7.40;1.00
12845;DHT22;68700;48.534;9.196;2023-04-25T20:57:16;7.40;1.00
12845;DHT22;68700;48.534;9.196;2023-04-25T21:00:38;7.40;1.00
12845;DHT22;68700;48.534;9.196;2023-04-25T21:04:00;7.40;1.00
12845;DHT22;68700;48.534;9.196;2023-04-25T21:07:23;7.30;1.00
12845;DHT22;68700;48.534;9.196;2023-04-25T21:10:46;7.30;1.00
12845;DHT22;68700;48.534;9.196;2023-04-25T21:14:08;7.30;2.20
12845;DHT22;68700;48.534;9.196;2023-04-25T21:17:30;7.20;1.30
12845;DHT22;68700;48.534;9.196;2023-04-25T21:20:52;7.10;8.20
12845;DHT22;68700;48.534;9.196;2023-04-25T21:24:15;7.10;15.00
12845;DHT22;68700;48.534;9.196;2023-04-25T21:27:37;7.10;21.40
12845;DHT22;68700;48.534;9.196;2023-04-25T21:30:59;7.10;20.20
12845;DHT22;68700;48.534;9.196;2023-04-25T21:34:21;7.20;22.50
12845;DHT22;68700;48.534;9.196;2023-04-25T21:37:43;7.20;20.00
12845;DHT22;68700;48.534;9.196;2023-04-25T21:41:06;7.00;34.50
12845;DHT22;68700;48.534;9.196;2023-04-25T21:44:28;7.10;44.40
12845;DHT22;68700;48.534;9.196;2023-04-25T21:47:50;7.10;44.10
12845;DHT22;68700;48.534;9.196;2023-04-25T21:51:11;7.20;35.60
12845;DHT22;68700;48.534;9.196;2023-04-25T21:54:33;7.10;4.70
12845;DHT22;68700;48.534;9.196;2023-04-25T21:57:57;7.00;1.00